Aviation Digital Data Service (ADDS)

Output produced by TAFs form (1018 UTC 23 September 2014)
found at http://www.aviationweather.gov/adds/tafs/
 
KBJC 231015Z AUTO 18006KT 10SM BKN095 16/10 A3015 RMK AO2
KBJC 230913Z 2309/2406 14006KT P6SM BKN100 
     FM231200 25008KT P6SM BKN100 
     FM231700 34010KT P6SM SCT100 
     FM232300 29010KT P6SM BKN100 
     FM240200 27008KT P6SM SCT100